createdAt,value
2023-05-04T05:11:38.778Z,6.50
2023-05-04T05:12:39.367Z,6.30
2023-05-04T05:13:39.459Z,6.20
2023-05-04T05:14:39.490Z,6.90
2023-05-04T05:15:39.350Z,6.90
2023-05-04T05:16:39.461Z,6.30
2023-05-04T05:17:39.454Z,6.50
2023-05-04T05:18:39.370Z,5.90
2023-05-04T05:19:40.980Z,6.70
2023-05-04T05:20:39.340Z,6.50
2023-05-04T05:21:39.334Z,6.60
2023-05-04T05:22:39.278Z,6.00
2023-05-04T05:23:39.426Z,7.30
2023-05-04T05:24:39.427Z,6.40
2023-05-04T05:25:39.426Z,6.70
2023-05-04T05:26:39.256Z,6.70
2023-05-04T05:27:39.270Z,6.60
2023-05-04T05:28:39.170Z,6.70
2023-05-04T05:29:39.268Z,6.30
2023-05-04T05:30:39.236Z,6.60
2023-05-04T05:31:39.216Z,6.50
2023-05-04T05:32:39.222Z,6.50
2023-05-04T05:33:39.179Z,6.60
2023-05-04T05:34:39.153Z,6.80
2023-05-04T05:35:39.241Z,6.80
2023-05-04T05:36:39.131Z,6.60
2023-05-04T05:37:39.127Z,6.60
2023-05-04T05:38:39.099Z,6.50
2023-05-04T05:39:39.071Z,6.80
2023-05-04T05:40:39.090Z,6.50
2023-05-04T05:41:39.086Z,6.60
2023-05-04T05:42:39.883Z,6.40
2023-05-04T05:43:39.942Z,6.10
2023-05-04T05:44:40.549Z,6.30
2023-05-04T05:45:39.148Z,5.70
2023-05-04T05:46:39.543Z,6.00
2023-05-04T05:47:39.177Z,6.60
2023-05-04T05:48:38.992Z,6.30
2023-05-04T05:49:38.991Z,6.70
2023-05-04T05:50:39.056Z,6.60
2023-05-04T05:51:39.011Z,6.40
2023-05-04T05:52:38.955Z,6.60
2023-05-04T05:53:39.870Z,6.20
2023-05-04T05:54:38.950Z,6.20
2023-05-04T05:55:38.963Z,6.20
2023-05-04T05:56:39.053Z,6.20
2023-05-04T05:57:38.894Z,6.50
2023-05-04T05:58:38.910Z,6.20
2023-05-04T05:59:38.906Z,6.10
2023-05-04T06:00:38.915Z,6.10
2023-05-04T06:01:39.153Z,6.10
2023-05-04T06:02:38.987Z,6.40
2023-05-04T06:03:39.009Z,5.90
2023-05-04T06:04:38.869Z,5.90
2023-05-04T06:05:38.898Z,6.10
2023-05-04T06:06:38.803Z,6.10
2023-05-04T06:07:38.865Z,6.30
2023-05-04T06:08:38.847Z,5.90
2023-05-04T06:09:38.834Z,5.80
2023-05-04T06:10:38.757Z,5.90
2023-05-04T06:11:39.049Z,5.70
2023-05-04T06:12:38.812Z,5.80
2023-05-04T06:13:39.070Z,5.90
2023-05-04T06:14:38.781Z,5.60
2023-05-04T06:15:39.372Z,6.00
2023-05-04T06:16:38.741Z,5.50
2023-05-04T06:17:38.821Z,5.90
2023-05-04T06:18:38.717Z,5.90
2023-05-04T06:19:38.803Z,5.50
2023-05-04T06:20:39.984Z,5.80
2023-05-04T06:21:38.708Z,6.10
2023-05-04T06:22:38.736Z,5.90
2023-05-04T06:23:38.662Z,5.50
2023-05-04T06:24:38.636Z,5.70
2023-05-04T06:25:38.672Z,5.40
2023-05-04T06:26:38.594Z,5.10
2023-05-04T06:27:38.642Z,5.70
2023-05-04T06:28:38.666Z,5.40
2023-05-04T06:29:38.578Z,5.80
2023-05-04T06:30:38.623Z,5.40
2023-05-04T06:31:38.598Z,5.90
2023-05-04T06:32:38.591Z,5.40
2023-05-04T06:33:38.584Z,5.80
2023-05-04T06:34:38.503Z,5.60
2023-05-04T06:35:38.610Z,5.40
2023-05-04T06:36:38.475Z,5.50
2023-05-04T06:37:38.466Z,5.80
2023-05-04T06:38:39.391Z,5.50
2023-05-04T06:39:38.428Z,5.70
2023-05-04T06:40:38.532Z,5.40
2023-05-04T06:41:39.368Z,5.50
2023-05-04T06:42:38.472Z,5.40
2023-05-04T06:43:38.468Z,5.30
2023-05-04T06:44:39.336Z,5.40
2023-05-04T06:45:38.479Z,5.70
2023-05-04T06:46:38.418Z,5.80
2023-05-04T06:47:38.400Z,5.40
2023-05-04T06:48:38.461Z,5.20
2023-05-04T06:49:38.356Z,5.60
2023-05-04T06:50:38.389Z,5.50
2023-05-04T06:51:38.339Z,5.70
2023-05-04T06:52:38.340Z,5.60
2023-05-04T06:53:38.339Z,5.20
2023-05-04T06:54:38.431Z,5.20
2023-05-04T06:55:38.399Z,5.80
2023-05-04T06:56:38.304Z,5.30
2023-05-04T06:57:38.241Z,4.60
2023-05-04T06:58:38.298Z,5.00
2023-05-04T06:59:38.455Z,5.40
2023-05-04T07:00:38.258Z,5.30
2023-05-04T07:01:38.304Z,5.20
2023-05-04T07:02:38.254Z,5.10
2023-05-04T07:03:38.305Z,4.90
2023-05-04T07:04:38.203Z,5.30
2023-05-04T07:05:38.268Z,5.00
2023-05-04T07:06:38.278Z,5.10
2023-05-04T07:07:38.860Z,5.10
2023-05-04T07:08:39.082Z,5.20
2023-05-04T07:09:38.254Z,5.10
2023-05-04T07:10:38.139Z,5.20
2023-05-04T07:11:38.199Z,4.90
2023-05-04T07:12:38.152Z,4.90
2023-05-04T07:13:38.123Z,5.10
2023-05-04T07:14:38.146Z,4.50
2023-05-04T07:15:38.211Z,5.00
2023-05-04T07:16:38.161Z,4.90
2023-05-04T07:17:38.249Z,5.00
2023-05-04T07:18:38.030Z,5.00
2023-05-04T07:19:38.102Z,5.10
2023-05-04T07:20:38.935Z,4.90
2023-05-04T07:21:38.120Z,4.70
2023-05-04T07:22:38.042Z,4.90
2023-05-04T07:23:38.322Z,4.70
2023-05-04T07:24:38.020Z,5.10
2023-05-04T07:25:38.071Z,4.70
2023-05-04T07:26:37.992Z,5.00
2023-05-04T07:27:37.934Z,5.10
2023-05-04T07:28:38.001Z,4.60
2023-05-04T07:29:37.986Z,4.80
2023-05-04T07:30:37.967Z,5.00
2023-05-04T07:31:38.104Z,4.90
2023-05-04T07:32:38.039Z,4.90
2023-05-04T07:33:37.884Z,5.00
2023-05-04T07:34:45.648Z,4.60
2023-05-04T07:35:37.919Z,4.90
2023-05-04T07:36:37.854Z,4.60
2023-05-04T07:37:38.367Z,4.30
2023-05-04T07:38:37.871Z,5.00
2023-05-04T07:39:37.856Z,5.40
2023-05-04T07:40:37.877Z,4.80
2023-05-04T07:41:38.396Z,5.00
2023-05-04T07:42:38.428Z,4.80
2023-05-04T07:43:37.801Z,4.80
2023-05-04T07:44:37.834Z,4.80
2023-05-04T07:45:37.804Z,4.60
2023-05-04T07:46:37.862Z,4.40
2023-05-04T07:47:37.933Z,4.50
2023-05-04T07:48:37.832Z,4.60
2023-05-04T07:49:37.714Z,4.00
2023-05-04T07:50:37.738Z,4.40
2023-05-04T07:51:37.803Z,4.40
2023-05-04T07:52:37.776Z,4.50
2023-05-04T07:53:37.687Z,4.20
2023-05-04T07:54:37.754Z,4.20
2023-05-04T07:55:37.685Z,4.30
2023-05-04T07:56:37.718Z,4.80
2023-05-04T07:57:37.650Z,4.20
2023-05-04T07:58:37.690Z,4.40
2023-05-04T07:59:37.660Z,4.10
2023-05-04T08:00:37.728Z,4.40
2023-05-04T08:01:37.702Z,4.30
2023-05-04T08:02:37.672Z,4.20
2023-05-04T08:03:37.617Z,4.50
2023-05-04T08:04:37.548Z,4.30
2023-05-04T08:05:37.630Z,4.50
2023-05-04T08:06:37.639Z,4.50
2023-05-04T08:07:37.658Z,4.70
2023-05-04T08:08:37.816Z,4.10
2023-05-04T08:09:37.538Z,4.40
2023-05-04T08:10:37.544Z,4.10
2023-05-04T08:11:37.512Z,4.20
2023-05-04T08:12:37.566Z,4.30
2023-05-04T08:13:37.559Z,4.30
2023-05-04T08:14:38.335Z,4.90
2023-05-04T08:15:37.511Z,4.30
2023-05-04T08:16:37.456Z,4.40
2023-05-04T08:17:39.465Z,4.50
2023-05-04T08:18:37.407Z,4.80
2023-05-04T08:19:37.447Z,4.30
2023-05-04T08:20:37.613Z,4.50
2023-05-04T08:21:38.369Z,4.80
2023-05-04T08:22:37.381Z,4.20
2023-05-04T08:23:37.663Z,4.10
2023-05-04T08:24:37.989Z,4.30
2023-05-04T08:25:37.349Z,4.20
2023-05-04T08:26:38.049Z,4.50
2023-05-04T08:27:37.438Z,4.10
2023-05-04T08:28:37.405Z,4.00
2023-05-04T08:29:37.667Z,4.40
2023-05-04T08:30:37.336Z,4.30
2023-05-04T08:31:37.385Z,4.20
2023-05-04T08:32:37.582Z,4.50
2023-05-04T08:33:37.912Z,4.00
2023-05-04T08:34:37.492Z,4.00
2023-05-04T08:35:37.304Z,3.90
2023-05-04T08:36:37.354Z,3.90
2023-05-04T08:37:39.070Z,4.10
2023-05-04T08:38:37.900Z,3.90
2023-05-04T08:39:37.504Z,4.20
2023-05-04T08:40:37.308Z,4.10
2023-05-04T08:41:37.350Z,4.10
2023-05-04T08:42:37.197Z,3.90
2023-05-04T08:43:37.206Z,4.10
2023-05-04T08:44:37.247Z,3.70
2023-05-04T08:45:37.268Z,3.90
2023-05-04T08:46:37.227Z,3.90
2023-05-04T08:47:37.190Z,3.60
2023-05-04T08:48:37.251Z,3.70
2023-05-04T08:49:37.325Z,3.70
2023-05-04T08:50:37.190Z,3.70
2023-05-04T08:51:37.132Z,4.00
2023-05-04T08:52:37.114Z,4.10
2023-05-04T08:53:37.092Z,4.10
2023-05-04T08:54:37.277Z,4.50
2023-05-04T08:55:37.104Z,3.80
2023-05-04T08:56:37.126Z,3.80
2023-05-04T08:57:37.057Z,3.90
2023-05-04T08:58:37.019Z,4.10
2023-05-04T08:59:37.098Z,3.70
2023-05-04T09:00:37.073Z,3.80
2023-05-04T09:01:37.139Z,4.20
2023-05-04T09:02:36.995Z,3.70
2023-05-04T09:03:37.049Z,3.90
2023-05-04T09:04:37.016Z,3.80
2023-05-04T09:05:37.010Z,3.70
2023-05-04T09:06:36.952Z,4.00
2023-05-04T09:07:37.100Z,3.90
2023-05-04T09:08:36.966Z,3.80
2023-05-04T09:09:36.945Z,4.20
2023-05-04T09:10:36.941Z,3.90
2023-05-04T09:11:36.905Z,3.80
2023-05-04T09:12:37.987Z,3.70
2023-05-04T09:13:36.908Z,4.60
2023-05-04T09:14:36.919Z,4.30
2023-05-04T09:15:36.893Z,4.30
2023-05-04T09:16:36.919Z,4.30
2023-05-04T09:17:44.569Z,3.80
2023-05-04T09:18:36.856Z,4.30
2023-05-04T09:19:36.807Z,4.20
2023-05-04T09:20:36.872Z,4.30
2023-05-04T09:21:36.785Z,4.20
2023-05-04T09:22:36.849Z,4.40
2023-05-04T09:23:36.818Z,4.30
2023-05-04T09:24:36.811Z,4.70
2023-05-04T09:25:36.761Z,4.70
2023-05-04T09:26:36.893Z,5.50
2023-05-04T09:27:36.744Z,4.30
2023-05-04T09:28:36.889Z,4.70
2023-05-04T09:29:36.704Z,4.40
2023-05-04T09:30:36.767Z,4.40
2023-05-04T09:31:36.819Z,4.60
2023-05-04T09:32:36.715Z,4.40
2023-05-04T09:33:36.678Z,4.50
2023-05-04T09:34:36.642Z,4.90
2023-05-04T09:35:36.701Z,4.70
2023-05-04T09:36:36.700Z,4.40
2023-05-04T09:37:36.601Z,4.70
2023-05-04T09:38:36.637Z,4.90
2023-05-04T09:39:36.613Z,5.10
2023-05-04T09:40:36.579Z,4.60
2023-05-04T09:41:36.561Z,4.80
2023-05-04T09:42:36.610Z,4.30
2023-05-04T09:43:36.586Z,4.80
2023-05-04T09:44:36.535Z,4.80
2023-05-04T09:45:36.537Z,4.80
2023-05-04T09:46:36.827Z,4.60
2023-05-04T09:47:36.527Z,4.50
2023-05-04T09:48:36.530Z,5.00
2023-05-04T09:49:36.488Z,4.60
2023-05-04T09:50:36.509Z,4.40
2023-05-04T09:51:36.528Z,5.30
2023-05-04T09:52:36.584Z,4.80
2023-05-04T09:53:36.467Z,4.80
2023-05-04T09:54:36.501Z,5.00
2023-05-04T09:55:36.396Z,5.10
2023-05-04T09:56:36.438Z,4.80
2023-05-04T09:57:36.414Z,5.00
2023-05-04T09:58:36.389Z,4.70
2023-05-04T09:59:36.398Z,4.90
2023-05-04T10:00:36.516Z,4.70
2023-05-04T10:01:36.468Z,4.90
2023-05-04T10:02:36.492Z,5.10
2023-05-04T10:03:36.349Z,5.20
2023-05-04T10:04:36.438Z,5.10
2023-05-04T10:05:36.361Z,5.40
2023-05-04T10:06:36.325Z,5.10
2023-05-04T10:07:37.002Z,4.90
2023-05-04T10:08:36.279Z,5.20
2023-05-04T10:09:36.340Z,5.10
2023-05-04T10:10:36.296Z,5.40
2023-05-04T10:11:36.352Z,5.10
2023-05-04T10:12:36.309Z,4.90
2023-05-04T10:13:36.290Z,5.10
2023-05-04T10:14:36.594Z,5.60
2023-05-04T10:15:36.244Z,5.20
2023-05-04T10:16:36.244Z,5.30
2023-05-04T10:17:36.236Z,4.90
2023-05-04T10:18:36.227Z,5.40
2023-05-04T10:19:36.213Z,5.50
2023-05-04T10:20:36.537Z,5.50
2023-05-04T10:21:36.176Z,5.80
2023-05-04T10:22:36.129Z,5.80
2023-05-04T10:23:36.189Z,5.20
2023-05-04T10:24:36.142Z,5.30
2023-05-04T10:25:36.155Z,5.40
2023-05-04T10:26:36.153Z,5.50
2023-05-04T10:27:36.126Z,5.50
2023-05-04T10:28:36.110Z,5.40
2023-05-04T10:29:36.502Z,5.50
2023-05-04T10:30:36.996Z,5.70
2023-05-04T10:31:36.100Z,6.00
2023-05-04T10:32:36.127Z,5.20
2023-05-04T10:33:36.063Z,5.50
2023-05-04T10:34:36.046Z,5.30
2023-05-04T10:35:36.014Z,5.30
2023-05-04T10:36:36.013Z,5.60
2023-05-04T10:37:36.003Z,6.00
2023-05-04T10:38:35.976Z,5.60
2023-05-04T10:39:35.947Z,5.30
2023-05-04T10:40:36.057Z,6.00
2023-05-04T10:41:36.012Z,5.50
2023-05-04T10:42:35.974Z,5.60
2023-05-04T10:43:35.929Z,5.70
2023-05-04T10:44:35.933Z,6.10
2023-05-04T10:45:36.138Z,6.00
2023-05-04T10:46:35.939Z,5.50
2023-05-04T10:47:35.980Z,5.70
2023-05-04T10:48:35.899Z,6.00
2023-05-04T10:49:35.836Z,6.00
2023-05-04T10:50:35.848Z,5.80
2023-05-04T10:51:48.596Z,5.90
2023-05-04T10:52:35.992Z,6.30
2023-05-04T10:53:35.824Z,6.00
2023-05-04T10:54:35.857Z,5.80
2023-05-04T10:55:35.847Z,5.80
2023-05-04T10:56:35.821Z,5.80
2023-05-04T10:57:35.811Z,6.30
2023-05-04T10:58:35.774Z,5.70
2023-05-04T10:59:36.796Z,5.80
2023-05-04T11:00:35.813Z,5.80
2023-05-04T11:01:35.837Z,5.70
2023-05-04T11:02:35.791Z,5.90
2023-05-04T11:03:36.128Z,5.90
2023-05-04T11:04:35.769Z,5.70
2023-05-04T11:05:35.707Z,6.10
2023-05-04T11:06:35.710Z,5.70
2023-05-04T11:07:35.766Z,6.00
2023-05-04T11:08:35.648Z,5.40
2023-05-04T11:09:35.670Z,6.10
2023-05-04T11:10:35.693Z,5.70
2023-05-04T11:11:35.681Z,6.20
2023-05-04T11:12:35.903Z,5.40
2023-05-04T11:13:35.670Z,5.80
2023-05-04T11:14:35.638Z,5.90
2023-05-04T11:15:35.658Z,5.80
2023-05-04T11:16:35.603Z,5.60
2023-05-04T11:17:35.661Z,6.10
2023-05-04T11:18:35.686Z,6.10
2023-05-04T11:19:35.597Z,5.80
2023-05-04T11:20:36.559Z,5.50
2023-05-04T11:21:35.627Z,5.30
2023-05-04T11:22:35.538Z,6.00
2023-05-04T11:23:35.540Z,5.80
2023-05-04T11:24:35.521Z,6.50
2023-05-04T11:25:35.511Z,5.60
2023-05-04T11:26:35.504Z,6.00
2023-05-04T11:27:35.632Z,5.60
2023-05-04T11:28:35.728Z,6.00
2023-05-04T11:29:35.481Z,5.50
2023-05-04T11:30:35.438Z,5.70
2023-05-04T11:31:35.477Z,5.70
2023-05-04T11:32:35.574Z,5.70
2023-05-04T11:33:35.442Z,6.00
2023-05-04T11:34:35.494Z,6.10
2023-05-04T11:35:35.413Z,6.10
2023-05-04T11:36:35.424Z,6.80
2023-05-04T11:37:35.419Z,6.40
2023-05-04T11:38:35.386Z,6.40
2023-05-04T11:39:35.369Z,6.20
2023-05-04T11:40:35.399Z,6.20
2023-05-04T11:41:35.357Z,6.20
2023-05-04T11:42:35.564Z,5.80
2023-05-04T11:43:35.343Z,6.00
2023-05-04T11:44:35.354Z,6.00
2023-05-04T11:45:35.340Z,6.00
2023-05-04T11:46:35.382Z,6.40
2023-05-04T11:47:35.360Z,6.00
2023-05-04T11:48:35.397Z,6.40
2023-05-04T11:49:35.285Z,6.40
2023-05-04T11:50:35.240Z,5.90
2023-05-04T11:51:35.306Z,6.20
2023-05-04T11:52:35.231Z,6.20
2023-05-04T11:53:35.239Z,6.30
2023-05-04T11:54:35.204Z,6.50
2023-05-04T11:55:35.565Z,6.60
2023-05-04T11:56:35.486Z,6.30
2023-05-04T11:57:35.213Z,6.10
2023-05-04T11:58:36.002Z,6.10
2023-05-04T11:59:35.149Z,6.30
2023-05-04T12:00:35.179Z,6.20
2023-05-04T12:01:35.156Z,6.40
2023-05-04T12:02:35.244Z,6.50
2023-05-04T12:03:52.047Z,6.10
2023-05-04T12:04:35.256Z,6.20
2023-05-04T12:05:35.167Z,6.30
2023-05-04T12:06:35.065Z,6.80
2023-05-04T12:07:35.399Z,5.90
2023-05-04T12:08:35.156Z,6.10
2023-05-04T12:09:35.070Z,6.10
2023-05-04T12:10:35.138Z,6.20
2023-05-04T12:11:35.132Z,5.90
2023-05-04T12:12:35.079Z,5.50
2023-05-04T12:13:35.057Z,6.10
2023-05-04T12:14:35.051Z,6.60
2023-05-04T12:15:35.091Z,6.40
2023-05-04T12:16:35.635Z,6.00
2023-05-04T12:17:35.117Z,6.30
2023-05-04T12:18:35.527Z,5.80
2023-05-04T12:19:35.897Z,6.10
2023-05-04T12:20:35.324Z,5.90
2023-05-04T12:21:35.161Z,5.90
2023-05-04T12:22:36.131Z,6.40
2023-05-04T12:23:35.102Z,5.90
2023-05-04T12:24:34.915Z,6.10
2023-05-04T12:25:41.347Z,6.10
2023-05-04T12:26:34.957Z,6.40
2023-05-04T12:27:34.929Z,6.30
2023-05-04T12:28:35.018Z,6.20
2023-05-04T12:29:35.136Z,6.30
2023-05-04T12:30:35.016Z,5.90
2023-05-04T12:31:35.101Z,6.10
2023-05-04T12:32:35.081Z,5.50
2023-05-04T12:33:34.865Z,5.40
2023-05-04T12:34:35.439Z,6.10
2023-05-04T12:35:35.143Z,6.20
2023-05-04T12:36:35.118Z,5.80
2023-05-04T12:37:34.883Z,5.80
2023-05-04T12:38:34.930Z,5.70
2023-05-04T12:39:34.912Z,5.60
2023-05-04T12:40:34.898Z,5.40
2023-05-04T12:41:34.968Z,5.60
2023-05-04T12:42:34.872Z,5.30
2023-05-04T12:43:35.013Z,5.70
2023-05-04T12:44:34.984Z,5.60
2023-05-04T12:45:35.889Z,5.10
2023-05-04T12:46:35.502Z,5.40
2023-05-04T12:47:35.129Z,5.50
2023-05-04T12:48:34.853Z,5.40
2023-05-04T12:49:34.695Z,5.20
2023-05-04T12:50:34.711Z,5.40
2023-05-04T12:51:34.651Z,5.70
2023-05-04T12:52:34.671Z,5.40
2023-05-04T12:53:34.875Z,5.20
2023-05-04T12:54:34.874Z,4.70
2023-05-04T12:55:34.749Z,4.80
2023-05-04T12:56:35.042Z,4.80
2023-05-04T12:57:34.980Z,4.70
2023-05-04T12:58:34.918Z,5.20
2023-05-04T12:59:34.724Z,4.80
2023-05-04T13:00:35.463Z,5.10
2023-05-04T13:01:35.092Z,5.10
2023-05-04T13:02:34.871Z,4.70
2023-05-04T13:03:35.053Z,4.70
2023-05-04T13:04:34.737Z,4.80
2023-05-04T13:05:34.535Z,4.50
2023-05-04T13:06:34.680Z,4.80
2023-05-04T13:07:34.649Z,4.60
2023-05-04T13:08:34.653Z,4.80
2023-05-04T13:09:34.466Z,4.80
2023-05-04T13:10:34.791Z,4.50
2023-05-04T13:11:34.840Z,4.20
2023-05-04T13:12:34.731Z,4.50
2023-05-04T13:13:34.915Z,4.30
2023-05-04T13:14:39.496Z,4.80
2023-05-04T13:15:34.980Z,4.30
2023-05-04T13:16:34.848Z,4.50
2023-05-04T13:17:34.810Z,4.50
2023-05-04T13:18:34.838Z,4.80
2023-05-04T13:19:34.829Z,4.70
2023-05-04T13:20:34.879Z,5.00
2023-05-04T13:21:34.475Z,4.50
2023-05-04T13:22:34.638Z,4.90
2023-05-04T13:23:34.535Z,4.30
2023-05-04T13:24:34.600Z,4.30
2023-05-04T13:25:34.373Z,4.50
2023-05-04T13:26:34.421Z,4.30
2023-05-04T13:27:34.551Z,4.20
2023-05-04T13:28:34.371Z,4.00
2023-05-04T13:29:34.431Z,3.80
2023-05-04T13:30:34.437Z,4.00
2023-05-04T13:31:34.606Z,4.20
2023-05-04T13:32:36.558Z,4.60
2023-05-04T13:33:34.298Z,4.00
2023-05-04T13:34:34.221Z,4.40
2023-05-04T13:35:34.239Z,4.00
2023-05-04T13:36:34.316Z,4.30
2023-05-04T13:37:34.493Z,4.20
2023-05-04T13:38:34.774Z,4.20
2023-05-04T13:39:34.587Z,3.90
2023-05-04T13:40:34.774Z,4.20
2023-05-04T13:41:34.278Z,3.80
2023-05-04T13:42:36.905Z,3.70
2023-05-04T13:43:34.305Z,3.60
2023-05-04T13:44:34.363Z,4.20
2023-05-04T13:45:34.283Z,3.90
2023-05-04T13:46:34.282Z,4.40
2023-05-04T13:47:34.250Z,3.80
2023-05-04T13:48:34.198Z,4.20
2023-05-04T13:49:34.247Z,3.60
2023-05-04T13:50:34.459Z,3.70
2023-05-04T13:51:34.524Z,3.90
2023-05-04T13:52:34.133Z,3.80
2023-05-04T13:53:34.310Z,3.50
2023-05-04T13:54:34.100Z,3.80
2023-05-04T13:55:34.964Z,4.00
2023-05-04T13:56:34.073Z,4.00
2023-05-04T13:57:34.032Z,3.80
2023-05-04T13:58:34.250Z,3.90
2023-05-04T13:59:34.002Z,3.90
2023-05-04T14:00:34.123Z,4.20
2023-05-04T14:01:34.509Z,3.80
2023-05-04T14:02:34.213Z,3.80
2023-05-04T14:03:34.174Z,3.70
2023-05-04T14:04:34.318Z,3.40
2023-05-04T14:05:34.112Z,3.40
2023-05-04T14:06:33.977Z,3.50
2023-05-04T14:07:34.242Z,3.60
2023-05-04T14:08:33.902Z,3.40
2023-05-04T14:09:34.069Z,4.10
2023-05-04T14:10:34.952Z,3.50
2023-05-04T14:11:34.066Z,3.90
2023-05-04T14:12:34.036Z,3.50
2023-05-04T14:13:34.287Z,3.30
2023-05-04T14:14:34.125Z,4.00
2023-05-04T14:15:33.951Z,3.80
2023-05-04T14:16:36.140Z,3.60
2023-05-04T14:17:33.782Z,3.80
2023-05-04T14:18:34.204Z,3.70
2023-05-04T14:19:33.849Z,3.60
2023-05-04T14:20:33.916Z,3.50
2023-05-04T14:21:33.806Z,3.30
2023-05-04T14:22:36.447Z,3.40
2023-05-04T14:23:33.804Z,3.30
2023-05-04T14:24:33.720Z,3.40
2023-05-04T14:25:33.830Z,3.70
2023-05-04T14:26:33.693Z,3.40
2023-05-04T14:27:33.917Z,3.60
2023-05-04T14:28:33.645Z,3.80
2023-05-04T14:29:33.711Z,3.60
2023-05-04T14:30:34.284Z,3.90
2023-05-04T14:31:33.738Z,3.30
2023-05-04T14:32:33.613Z,3.50
2023-05-04T14:33:33.639Z,3.20
2023-05-04T14:34:33.655Z,3.50
2023-05-04T14:35:34.262Z,4.30
2023-05-04T14:36:33.684Z,3.90
2023-05-04T14:37:33.578Z,3.70
2023-05-04T14:38:33.697Z,3.50
2023-05-04T14:39:33.614Z,3.50
2023-05-04T14:40:33.555Z,3.50
2023-05-04T14:41:33.548Z,3.90
2023-05-04T14:42:33.792Z,3.60
2023-05-04T14:43:33.482Z,3.80
2023-05-04T14:44:33.540Z,3.60
2023-05-04T14:45:33.631Z,3.30
2023-05-04T14:46:33.444Z,3.90
2023-05-04T14:47:33.482Z,3.40
2023-05-04T14:48:33.412Z,3.20
2023-05-04T14:49:37.350Z,3.50
2023-05-04T14:50:33.448Z,3.30
2023-05-04T14:51:33.608Z,3.20
2023-05-04T14:52:33.428Z,3.30
2023-05-04T14:53:33.404Z,3.40
2023-05-04T14:54:33.390Z,3.80
2023-05-04T14:55:33.482Z,3.90
2023-05-04T14:56:33.358Z,3.70
2023-05-04T14:57:33.318Z,3.90
2023-05-04T14:58:33.349Z,4.20
2023-05-04T14:59:33.303Z,4.30
2023-05-04T15:00:33.321Z,4.00
2023-05-04T15:01:33.743Z,4.20
2023-05-04T15:02:33.356Z,4.00
2023-05-04T15:03:33.418Z,3.90
2023-05-04T15:04:33.312Z,3.50
2023-05-04T15:05:33.280Z,3.90
2023-05-04T15:06:33.259Z,3.40
2023-05-04T15:07:33.212Z,3.80
2023-05-04T15:08:33.216Z,3.80
2023-05-04T15:09:33.204Z,4.00
2023-05-04T15:10:33.230Z,3.90
2023-05-04T15:11:33.181Z,4.10
2023-05-04T15:12:33.229Z,3.80
2023-05-04T15:13:33.682Z,4.20
2023-05-04T15:14:33.170Z,3.90
2023-05-04T15:15:33.192Z,3.70
2023-05-04T15:16:33.523Z,3.60
2023-05-04T15:17:33.151Z,3.30
2023-05-04T15:18:33.197Z,3.40
2023-05-04T15:19:33.236Z,3.60
2023-05-04T15:20:33.118Z,3.40
2023-05-04T15:21:33.090Z,3.60
2023-05-04T15:22:33.117Z,3.70
2023-05-04T15:23:33.170Z,3.50
2023-05-04T15:24:33.083Z,3.60
2023-05-04T15:25:33.039Z,3.80
2023-05-04T15:26:33.072Z,3.80
2023-05-04T15:27:33.089Z,3.50
2023-05-04T15:28:33.036Z,3.80
2023-05-04T15:29:35.041Z,3.40
2023-05-04T15:30:33.114Z,3.50
2023-05-04T15:31:33.061Z,3.80
2023-05-04T15:32:32.994Z,3.60
2023-05-04T15:33:33.021Z,3.90
2023-05-04T15:34:32.960Z,3.40
2023-05-04T15:35:32.988Z,3.30
2023-05-04T15:36:32.982Z,3.70
2023-05-04T15:37:32.936Z,4.00
2023-05-04T15:38:32.993Z,3.20
2023-05-04T15:39:32.889Z,3.80
2023-05-04T15:40:32.930Z,3.30
2023-05-04T15:41:32.925Z,3.70
2023-05-04T15:42:33.784Z,3.50
2023-05-04T15:43:32.864Z,3.50
2023-05-04T15:44:32.874Z,3.50
2023-05-04T15:45:33.002Z,3.60
2023-05-04T15:46:32.956Z,3.20
2023-05-04T15:47:33.595Z,3.30
2023-05-04T15:48:32.793Z,3.10
2023-05-04T15:49:32.928Z,3.30
2023-05-04T15:50:33.255Z,3.60
2023-05-04T15:51:32.779Z,3.60
2023-05-04T15:52:32.776Z,3.60
2023-05-04T15:53:32.787Z,3.60
2023-05-04T15:54:32.749Z,3.70
2023-05-04T15:55:32.772Z,3.60
2023-05-04T15:56:32.719Z,3.70
2023-05-04T15:57:32.735Z,3.20
2023-05-04T15:58:32.759Z,3.50
2023-05-04T15:59:32.701Z,3.30
2023-05-04T16:00:32.815Z,3.20
2023-05-04T16:01:32.723Z,3.30
2023-05-04T16:02:32.720Z,3.20
2023-05-04T16:03:32.654Z,3.10
2023-05-04T16:04:32.630Z,3.10
2023-05-04T16:05:33.172Z,3.50
2023-05-04T16:06:32.614Z,3.10
2023-05-04T16:07:32.653Z,3.40
2023-05-04T16:08:32.654Z,3.10
2023-05-04T16:09:32.576Z,3.30
2023-05-04T16:10:32.615Z,3.50
2023-05-04T16:11:32.619Z,3.30
2023-05-04T16:12:32.579Z,3.30
2023-05-04T16:13:32.862Z,3.30
2023-05-04T16:14:32.610Z,3.30
2023-05-04T16:15:32.596Z,3.60
2023-05-04T16:16:32.525Z,3.20
2023-05-04T16:17:33.212Z,3.40
2023-05-04T16:18:32.483Z,3.50
2023-05-04T16:19:32.527Z,3.30
2023-05-04T16:20:32.535Z,3.80
2023-05-04T16:21:32.485Z,3.90
2023-05-04T16:22:32.469Z,3.80
2023-05-04T16:23:32.546Z,3.30
2023-05-04T16:24:32.470Z,3.40
2023-05-04T16:25:32.568Z,3.50
2023-05-04T16:26:32.422Z,3.40
2023-05-04T16:27:32.430Z,3.50
2023-05-04T16:28:32.426Z,3.20
2023-05-04T16:29:32.400Z,3.40
2023-05-04T16:30:32.409Z,3.20
2023-05-04T16:31:32.388Z,3.20
2023-05-04T16:32:32.404Z,3.30
2023-05-04T16:33:32.416Z,3.60
2023-05-04T16:34:32.379Z,3.50
2023-05-04T16:35:32.360Z,3.50
2023-05-04T16:36:32.314Z,3.10
2023-05-04T16:37:33.527Z,3.70
2023-05-04T16:38:33.588Z,3.70
2023-05-04T16:39:33.519Z,3.60
2023-05-04T16:40:34.285Z,3.20
2023-05-04T16:41:33.571Z,3.30
2023-05-04T16:42:33.391Z,3.50
2023-05-04T16:43:33.562Z,4.10
2023-05-04T17:11:45.186Z,3.70
2023-05-04T17:11:51.958Z,3.70
2023-05-04T17:12:51.818Z,2.80
2023-05-04T17:13:51.844Z,2.90
2023-05-04T17:14:51.857Z,2.90
2023-05-04T17:15:51.822Z,3.10
2023-05-04T17:16:55.573Z,2.70
2023-05-04T19:17:10.053Z,2.90
2023-05-04T19:17:17.337Z,2.80
2023-05-04T19:18:16.975Z,3.30
2023-05-04T21:13:48.125Z,4.80
2023-05-04T21:14:48.883Z,4.70
2023-05-04T21:15:48.736Z,4.70
2023-05-04T21:16:48.642Z,5.20
2023-05-04T21:17:48.974Z,4.50
2023-05-04T21:18:52.326Z,4.20
2023-05-04T21:19:48.608Z,4.40
2023-05-04T21:20:48.669Z,4.40
2023-05-04T21:21:48.597Z,4.50
2023-05-04T21:22:48.564Z,4.70
2023-05-04T21:23:48.627Z,4.40
2023-05-04T21:24:48.530Z,4.40
2023-05-04T21:25:48.557Z,4.50
2023-05-04T21:26:49.345Z,4.60
2023-05-04T21:27:48.541Z,4.80
2023-05-04T21:28:48.509Z,4.60
2023-05-04T21:29:48.496Z,4.90
2023-05-04T21:30:49.143Z,4.50
2023-05-04T21:31:48.731Z,4.80
2023-05-04T21:32:48.762Z,4.80
2023-05-04T21:33:48.444Z,4.50
2023-05-04T21:34:48.468Z,4.50
2023-05-04T21:35:48.466Z,4.90
2023-05-04T21:36:48.672Z,4.80
2023-05-04T21:37:48.423Z,4.70
2023-05-04T21:38:48.433Z,4.70
2023-05-04T21:39:48.382Z,4.50
2023-05-04T21:40:48.394Z,4.50
2023-05-04T21:41:48.403Z,4.20
2023-05-04T21:42:48.354Z,4.60
2023-05-04T21:43:48.363Z,4.70
2023-05-04T21:44:48.577Z,4.30
2023-05-04T21:45:48.365Z,4.60
2023-05-04T21:46:48.369Z,4.60
2023-05-04T21:47:48.496Z,4.80
2023-05-04T21:48:48.313Z,4.90
2023-05-04T21:49:48.549Z,4.50
2023-05-04T21:50:48.279Z,4.60
2023-05-04T21:51:48.511Z,4.70
2023-05-04T21:52:48.529Z,4.60
2023-05-04T21:53:48.265Z,4.80
2023-05-04T21:54:48.286Z,4.90
2023-05-04T21:55:48.250Z,4.70
2023-05-04T21:56:48.451Z,4.80
2023-05-04T21:57:48.183Z,4.80
2023-05-04T21:58:48.514Z,4.70
2023-05-04T21:59:49.457Z,4.60
2023-05-04T22:00:48.191Z,5.10
2023-05-04T22:01:48.205Z,5.00
2023-05-04T22:02:48.165Z,4.70
2023-05-04T22:03:48.244Z,4.80
2023-05-04T22:04:48.129Z,4.90
2023-05-04T22:05:48.106Z,5.20
2023-05-04T22:06:48.354Z,5.40
2023-05-04T22:07:48.139Z,5.10
2023-05-04T22:08:48.318Z,5.00
2023-05-04T22:09:48.102Z,5.10
2023-05-04T22:10:48.037Z,5.40
2023-05-04T22:11:48.120Z,5.20
2023-05-04T22:12:48.107Z,5.00
2023-05-04T22:13:48.061Z,5.10
2023-05-04T22:14:48.028Z,4.60
2023-05-04T22:15:50.358Z,4.60
2023-05-04T22:16:48.025Z,5.00
2023-05-04T22:17:48.044Z,4.40
2023-05-04T22:18:48.000Z,5.50
2023-05-04T22:19:47.977Z,5.00
2023-05-04T22:20:47.961Z,5.20
2023-05-04T22:21:47.963Z,5.10
2023-05-04T22:22:48.218Z,5.40
2023-05-04T22:23:48.700Z,5.90
2023-05-04T22:24:48.197Z,5.80
2023-05-04T22:25:48.169Z,5.60
2023-05-04T22:26:47.880Z,6.10
2023-05-04T22:27:47.871Z,5.60
2023-05-04T22:28:47.878Z,5.70
2023-05-04T22:29:48.114Z,4.90
2023-05-04T22:30:47.918Z,6.10
2023-05-04T22:31:47.874Z,6.10
2023-05-04T22:32:47.890Z,5.70
2023-05-04T22:33:47.828Z,5.60
2023-05-04T22:34:47.853Z,5.00
2023-05-04T22:35:47.845Z,5.30
2023-05-04T22:36:48.020Z,5.50
2023-05-04T22:37:48.033Z,5.50
2023-05-04T22:38:47.763Z,5.60
2023-05-04T22:39:47.756Z,5.50
2023-05-04T22:40:47.741Z,5.50
2023-05-04T22:41:47.731Z,5.60
2023-05-04T22:42:47.738Z,5.70
2023-05-04T22:43:47.730Z,5.40
2023-05-04T22:44:47.786Z,5.40
2023-05-04T22:45:47.724Z,5.20
2023-05-04T22:46:47.710Z,5.10
2023-05-04T22:47:47.825Z,5.80
2023-05-04T22:48:47.690Z,5.70